sensor_id;sensor_type;location;lat;lon;timestamp;P1;durP1;ratioP1;P2;durP2;ratioP2
44558;SDS011;30270;40.238;18.256;2022-12-24T00:01:04;22.05;;;16.30;;
44558;SDS011;30270;40.238;18.256;2022-12-24T00:03:32;20.63;;;13.02;;
44558;SDS011;30270;40.238;18.256;2022-12-24T00:06:04;17.42;;;12.38;;
44558;SDS011;30270;40.238;18.256;2022-12-24T00:08:36;14.97;;;11.57;;
44558;SDS011;30270;40.238;18.256;2022-12-24T00:11:04;19.85;;;11.80;;
44558;SDS011;30270;40.238;18.256;2022-12-24T00:13:31;17.67;;;13.45;;
44558;SDS011;30270;40.238;18.256;2022-12-24T00:15:59;20.23;;;13.27;;
44558;SDS011;30270;40.238;18.256;2022-12-24T00:18:27;20.52;;;13.45;;
44558;SDS011;30270;40.238;18.256;2022-12-24T00:20:54;18.48;;;14.27;;
44558;SDS011;30270;40.238;18.256;2022-12-24T00:23:22;20.13;;;13.00;;
44558;SDS011;30270;40.238;18.256;2022-12-24T00:25:50;20.23;;;14.95;;
44558;SDS011;30270;40.238;18.256;2022-12-24T00:28:17;21.67;;;14.05;;
44558;SDS011;30270;40.238;18.256;2022-12-24T00:30:45;21.17;;;14.05;;
44558;SDS011;30270;40.238;18.256;2022-12-24T00:33:12;17.25;;;12.95;;
44558;SDS011;30270;40.238;18.256;2022-12-24T00:35:41;22.90;;;15.05;;
44558;SDS011;30270;40.238;18.256;2022-12-24T00:38:09;21.38;;;15.45;;
44558;SDS011;30270;40.238;18.256;2022-12-24T00:40:36;19.98;;;15.65;;
44558;SDS011;30270;40.238;18.256;2022-12-24T00:43:16;18.13;;;14.63;;
44558;SDS011;30270;40.238;18.256;2022-12-24T00:45:44;20.80;;;13.95;;
44558;SDS011;30270;40.238;18.256;2022-12-24T00:48:12;17.23;;;12.45;;
44558;SDS011;30270;40.238;18.256;2022-12-24T00:50:39;22.67;;;14.98;;
44558;SDS011;30270;40.238;18.256;2022-12-24T00:53:07;25.45;;;17.83;;
44558;SDS011;30270;40.238;18.256;2022-12-24T00:55:34;25.52;;;17.05;;
44558;SDS011;30270;40.238;18.256;2022-12-24T00:58:02;17.20;;;12.25;;
44558;SDS011;30270;40.238;18.256;2022-12-24T01:00:29;14.32;;;10.82;;
44558;SDS011;30270;40.238;18.256;2022-12-24T01:02:57;13.05;;;9.90;;
44558;SDS011;30270;40.238;18.256;2022-12-24T01:05:25;16.02;;;11.48;;
44558;SDS011;30270;40.238;18.256;2022-12-24T01:07:52;15.25;;;11.90;;
44558;SDS011;30270;40.238;18.256;2022-12-24T01:10:20;14.07;;;11.38;;
44558;SDS011;30270;40.238;18.256;2022-12-24T01:12:48;14.88;;;10.30;;
44558;SDS011;30270;40.238;18.256;2022-12-24T01:15:15;19.02;;;11.95;;
44558;SDS011;30270;40.238;18.256;2022-12-24T01:17:43;16.45;;;9.63;;
44558;SDS011;30270;40.238;18.256;2022-12-24T01:20:12;16.35;;;11.63;;
44558;SDS011;30270;40.238;18.256;2022-12-24T01:22:41;13.45;;;10.45;;
44558;SDS011;30270;40.238;18.256;2022-12-24T01:25:09;12.82;;;10.95;;
44558;SDS011;30270;40.238;18.256;2022-12-24T01:27:36;15.43;;;10.73;;
44558;SDS011;30270;40.238;18.256;2022-12-24T01:30:05;14.73;;;10.32;;
44558;SDS011;30270;40.238;18.256;2022-12-24T01:32:33;15.43;;;10.60;;
44558;SDS011;30270;40.238;18.256;2022-12-24T01:35:01;12.60;;;9.48;;
44558;SDS011;30270;40.238;18.256;2022-12-24T01:37:29;12.25;;;10.15;;
44558;SDS011;30270;40.238;18.256;2022-12-24T01:39:57;13.05;;;9.65;;
44558;SDS011;30270;40.238;18.256;2022-12-24T01:42:44;14.45;;;9.20;;
44558;SDS011;30270;40.238;18.256;2022-12-24T01:48:03;14.38;;;10.32;;
44558;SDS011;30270;40.238;18.256;2022-12-24T01:50:35;12.73;;;9.02;;
44558;SDS011;30270;40.238;18.256;2022-12-24T01:53:02;11.82;;;9.52;;
44558;SDS011;30270;40.238;18.256;2022-12-24T01:55:31;14.38;;;9.85;;
44558;SDS011;30270;40.238;18.256;2022-12-24T01:57:59;15.20;;;9.68;;
44558;SDS011;30270;40.238;18.256;2022-12-24T02:00:28;14.50;;;10.10;;
44558;SDS011;30270;40.238;18.256;2022-12-24T02:02:55;12.75;;;9.07;;
44558;SDS011;30270;40.238;18.256;2022-12-24T02:07:54;12.00;;;8.55;;
44558;SDS011;30270;40.238;18.256;2022-12-24T02:10:22;11.02;;;7.57;;
44558;SDS011;30270;40.238;18.256;2022-12-24T02:12:50;11.43;;;8.23;;
44558;SDS011;30270;40.238;18.256;2022-12-24T02:15:18;10.68;;;7.88;;
44558;SDS011;30270;40.238;18.256;2022-12-24T02:31:40;7.32;;;5.20;;
44558;SDS011;30270;40.238;18.256;2022-12-24T02:39:50;9.05;;;6.45;;
44558;SDS011;30270;40.238;18.256;2022-12-24T02:42:21;9.98;;;6.00;;
44558;SDS011;30270;40.238;18.256;2022-12-24T02:44:54;7.93;;;5.78;;
44558;SDS011;30270;40.238;18.256;2022-12-24T02:47:27;7.85;;;5.55;;
44558;SDS011;30270;40.238;18.256;2022-12-24T02:49:56;6.57;;;5.57;;
44558;SDS011;30270;40.238;18.256;2022-12-24T02:55:11;7.03;;;5.30;;
44558;SDS011;30270;40.238;18.256;2022-12-24T03:00:11;7.25;;;5.40;;
44558;SDS011;30270;40.238;18.256;2022-12-24T03:05:47;9.18;;;5.07;;
44558;SDS011;30270;40.238;18.256;2022-12-24T03:11:07;7.93;;;5.40;;
44558;SDS011;30270;40.238;18.256;2022-12-24T03:13:36;6.72;;;4.30;;
44558;SDS011;30270;40.238;18.256;2022-12-24T03:16:06;6.85;;;4.95;;
44558;SDS011;30270;40.238;18.256;2022-12-24T03:18:37;6.60;;;4.75;;
44558;SDS011;30270;40.238;18.256;2022-12-24T03:21:12;10.82;;;5.22;;
44558;SDS011;30270;40.238;18.256;2022-12-24T03:23:44;7.05;;;5.38;;
44558;SDS011;30270;40.238;18.256;2022-12-24T03:26:12;8.40;;;5.82;;
44558;SDS011;30270;40.238;18.256;2022-12-24T03:28:43;10.52;;;7.15;;
44558;SDS011;30270;40.238;18.256;2022-12-24T03:31:11;10.73;;;6.25;;
44558;SDS011;30270;40.238;18.256;2022-12-24T03:33:39;10.35;;;7.60;;
44558;SDS011;30270;40.238;18.256;2022-12-24T03:36:07;11.20;;;7.70;;
44558;SDS011;30270;40.238;18.256;2022-12-24T03:38:35;9.73;;;7.65;;
44558;SDS011;30270;40.238;18.256;2022-12-24T03:41:03;8.38;;;7.15;;
44558;SDS011;30270;40.238;18.256;2022-12-24T03:43:33;8.98;;;6.88;;
44558;SDS011;30270;40.238;18.256;2022-12-24T03:46:04;9.60;;;6.00;;
44558;SDS011;30270;40.238;18.256;2022-12-24T03:48:33;7.72;;;5.60;;
44558;SDS011;30270;40.238;18.256;2022-12-24T03:51:01;8.25;;;5.53;;
44558;SDS011;30270;40.238;18.256;2022-12-24T03:53:29;8.18;;;6.03;;
44558;SDS011;30270;40.238;18.256;2022-12-24T03:55:57;12.43;;;7.45;;
44558;SDS011;30270;40.238;18.256;2022-12-24T03:58:24;12.52;;;8.18;;
44558;SDS011;30270;40.238;18.256;2022-12-24T04:00:52;18.00;;;10.43;;
44558;SDS011;30270;40.238;18.256;2022-12-24T04:03:20;12.23;;;9.27;;
44558;SDS011;30270;40.238;18.256;2022-12-24T04:05:47;13.48;;;9.57;;
44558;SDS011;30270;40.238;18.256;2022-12-24T04:08:33;11.70;;;8.70;;
44558;SDS011;30270;40.238;18.256;2022-12-24T04:11:02;12.43;;;9.02;;
44558;SDS011;30270;40.238;18.256;2022-12-24T04:13:35;14.30;;;8.38;;
44558;SDS011;30270;40.238;18.256;2022-12-24T04:16:06;13.23;;;8.50;;
44558;SDS011;30270;40.238;18.256;2022-12-24T04:18:36;13.02;;;8.73;;
44558;SDS011;30270;40.238;18.256;2022-12-24T04:21:04;15.02;;;10.00;;
44558;SDS011;30270;40.238;18.256;2022-12-24T04:23:33;13.05;;;9.13;;
44558;SDS011;30270;40.238;18.256;2022-12-24T04:26:02;13.65;;;9.18;;
44558;SDS011;30270;40.238;18.256;2022-12-24T04:28:31;19.27;;;12.02;;
44558;SDS011;30270;40.238;18.256;2022-12-24T04:31:00;14.95;;;9.93;;
44558;SDS011;30270;40.238;18.256;2022-12-24T04:33:29;14.82;;;10.30;;
44558;SDS011;30270;40.238;18.256;2022-12-24T04:35:57;14.07;;;8.95;;
44558;SDS011;30270;40.238;18.256;2022-12-24T04:38:26;14.70;;;10.13;;
44558;SDS011;30270;40.238;18.256;2022-12-24T04:41:04;14.85;;;9.93;;
44558;SDS011;30270;40.238;18.256;2022-12-24T04:43:33;17.58;;;9.77;;
44558;SDS011;30270;40.238;18.256;2022-12-24T04:46:08;14.82;;;9.32;;
44558;SDS011;30270;40.238;18.256;2022-12-24T04:48:37;8.35;;;6.80;;
44558;SDS011;30270;40.238;18.256;2022-12-24T04:51:04;13.98;;;8.77;;
44558;SDS011;30270;40.238;18.256;2022-12-24T04:53:33;13.98;;;8.75;;
44558;SDS011;30270;40.238;18.256;2022-12-24T04:56:02;14.48;;;9.35;;
44558;SDS011;30270;40.238;18.256;2022-12-24T04:58:30;13.23;;;7.72;;
44558;SDS011;30270;40.238;18.256;2022-12-24T05:01:01;11.43;;;7.97;;
44558;SDS011;30270;40.238;18.256;2022-12-24T05:03:33;14.02;;;7.57;;
44558;SDS011;30270;40.238;18.256;2022-12-24T05:06:02;11.07;;;7.65;;
44558;SDS011;30270;40.238;18.256;2022-12-24T05:08:30;13.15;;;8.52;;
44558;SDS011;30270;40.238;18.256;2022-12-24T05:10:59;12.20;;;7.75;;
44558;SDS011;30270;40.238;18.256;2022-12-24T05:13:27;13.80;;;7.60;;
44558;SDS011;30270;40.238;18.256;2022-12-24T05:16:00;12.05;;;7.70;;
44558;SDS011;30270;40.238;18.256;2022-12-24T05:18:27;10.05;;;7.28;;
44558;SDS011;30270;40.238;18.256;2022-12-24T05:20:55;15.02;;;8.07;;
44558;SDS011;30270;40.238;18.256;2022-12-24T05:23:23;11.73;;;7.80;;
44558;SDS011;30270;40.238;18.256;2022-12-24T05:26:17;12.15;;;7.18;;
44558;SDS011;30270;40.238;18.256;2022-12-24T05:28:52;11.27;;;7.28;;
44558;SDS011;30270;40.238;18.256;2022-12-24T05:31:22;13.25;;;8.80;;
44558;SDS011;30270;40.238;18.256;2022-12-24T05:33:50;10.88;;;7.22;;
44558;SDS011;30270;40.238;18.256;2022-12-24T05:36:21;13.07;;;7.00;;
44558;SDS011;30270;40.238;18.256;2022-12-24T05:38:49;12.77;;;9.35;;
44558;SDS011;30270;40.238;18.256;2022-12-24T05:41:18;19.67;;;11.57;;
44558;SDS011;30270;40.238;18.256;2022-12-24T05:43:45;15.27;;;10.55;;
44558;SDS011;30270;40.238;18.256;2022-12-24T05:46:14;15.13;;;8.52;;
44558;SDS011;30270;40.238;18.256;2022-12-24T05:48:45;11.70;;;7.47;;
44558;SDS011;30270;40.238;18.256;2022-12-24T05:51:13;12.07;;;7.78;;
44558;SDS011;30270;40.238;18.256;2022-12-24T05:53:45;9.95;;;7.38;;
44558;SDS011;30270;40.238;18.256;2022-12-24T05:56:15;12.40;;;8.18;;
44558;SDS011;30270;40.238;18.256;2022-12-24T05:58:44;12.38;;;7.63;;
44558;SDS011;30270;40.238;18.256;2022-12-24T06:01:12;13.77;;;8.48;;
44558;SDS011;30270;40.238;18.256;2022-12-24T06:03:40;14.57;;;8.00;;
44558;SDS011;30270;40.238;18.256;2022-12-24T06:06:12;11.68;;;9.15;;
44558;SDS011;30270;40.238;18.256;2022-12-24T06:08:41;11.50;;;7.45;;
44558;SDS011;30270;40.238;18.256;2022-12-24T06:11:10;9.88;;;6.82;;
44558;SDS011;30270;40.238;18.256;2022-12-24T06:13:39;8.27;;;6.07;;
44558;SDS011;30270;40.238;18.256;2022-12-24T06:16:09;10.38;;;6.85;;
44558;SDS011;30270;40.238;18.256;2022-12-24T06:18:39;12.52;;;7.20;;
44558;SDS011;30270;40.238;18.256;2022-12-24T06:21:07;12.82;;;7.07;;
44558;SDS011;30270;40.238;18.256;2022-12-24T06:23:36;10.45;;;7.28;;
44558;SDS011;30270;40.238;18.256;2022-12-24T06:26:05;12.07;;;7.85;;
44558;SDS011;30270;40.238;18.256;2022-12-24T06:28:35;7.82;;;6.13;;
44558;SDS011;30270;40.238;18.256;2022-12-24T06:31:05;12.35;;;7.53;;
44558;SDS011;30270;40.238;18.256;2022-12-24T06:33:33;9.85;;;6.68;;
44558;SDS011;30270;40.238;18.256;2022-12-24T06:36:01;10.07;;;6.15;;
44558;SDS011;30270;40.238;18.256;2022-12-24T06:38:36;10.88;;;7.05;;
44558;SDS011;30270;40.238;18.256;2022-12-24T06:41:04;8.68;;;6.13;;
44558;SDS011;30270;40.238;18.256;2022-12-24T06:43:33;8.55;;;6.68;;
44558;SDS011;30270;40.238;18.256;2022-12-24T06:46:01;10.10;;;6.60;;
44558;SDS011;30270;40.238;18.256;2022-12-24T06:48:29;9.88;;;6.65;;
44558;SDS011;30270;40.238;18.256;2022-12-24T06:50:57;9.38;;;6.25;;
44558;SDS011;30270;40.238;18.256;2022-12-24T06:53:27;12.48;;;8.60;;
44558;SDS011;30270;40.238;18.256;2022-12-24T06:56:01;9.20;;;6.63;;
44558;SDS011;30270;40.238;18.256;2022-12-24T06:58:30;9.93;;;7.20;;
44558;SDS011;30270;40.238;18.256;2022-12-24T07:00:59;18.45;;;10.25;;
44558;SDS011;30270;40.238;18.256;2022-12-24T07:03:28;8.32;;;6.03;;
44558;SDS011;30270;40.238;18.256;2022-12-24T07:05:56;7.13;;;5.82;;
44558;SDS011;30270;40.238;18.256;2022-12-24T07:08:24;9.57;;;6.00;;
44558;SDS011;30270;40.238;18.256;2022-12-24T07:10:53;10.43;;;6.93;;
44558;SDS011;30270;40.238;18.256;2022-12-24T07:13:20;8.70;;;5.75;;
44558;SDS011;30270;40.238;18.256;2022-12-24T07:15:55;7.88;;;5.35;;
44558;SDS011;30270;40.238;18.256;2022-12-24T07:18:24;9.55;;;5.80;;
44558;SDS011;30270;40.238;18.256;2022-12-24T07:20:52;12.07;;;8.40;;
44558;SDS011;30270;40.238;18.256;2022-12-24T07:23:19;9.90;;;5.78;;
44558;SDS011;30270;40.238;18.256;2022-12-24T07:25:47;11.48;;;6.63;;
44558;SDS011;30270;40.238;18.256;2022-12-24T07:28:14;8.43;;;5.65;;
44558;SDS011;30270;40.238;18.256;2022-12-24T07:30:43;10.23;;;6.13;;
44558;SDS011;30270;40.238;18.256;2022-12-24T07:33:10;10.68;;;7.63;;
44558;SDS011;30270;40.238;18.256;2022-12-24T07:35:38;12.95;;;7.80;;
44558;SDS011;30270;40.238;18.256;2022-12-24T07:38:05;11.88;;;6.78;;
44558;SDS011;30270;40.238;18.256;2022-12-24T07:40:33;10.30;;;6.30;;
44558;SDS011;30270;40.238;18.256;2022-12-24T07:43:00;9.85;;;5.93;;
44558;SDS011;30270;40.238;18.256;2022-12-24T07:45:28;10.23;;;5.80;;
44558;SDS011;30270;40.238;18.256;2022-12-24T07:47:55;9.32;;;6.47;;
44558;SDS011;30270;40.238;18.256;2022-12-24T07:50:23;8.05;;;5.78;;
44558;SDS011;30270;40.238;18.256;2022-12-24T07:52:51;11.60;;;7.95;;
44558;SDS011;30270;40.238;18.256;2022-12-24T07:55:19;10.70;;;7.65;;
44558;SDS011;30270;40.238;18.256;2022-12-24T07:57:46;13.02;;;7.32;;
44558;SDS011;30270;40.238;18.256;2022-12-24T08:00:14;9.48;;;6.82;;
44558;SDS011;30270;40.238;18.256;2022-12-24T08:02:42;7.95;;;6.22;;
44558;SDS011;30270;40.238;18.256;2022-12-24T08:05:09;9.13;;;7.00;;
44558;SDS011;30270;40.238;18.256;2022-12-24T08:07:36;10.30;;;6.90;;
44558;SDS011;30270;40.238;18.256;2022-12-24T08:10:04;9.48;;;6.32;;
44558;SDS011;30270;40.238;18.256;2022-12-24T08:12:32;9.63;;;6.43;;
44558;SDS011;30270;40.238;18.256;2022-12-24T08:15:00;9.25;;;6.88;;
44558;SDS011;30270;40.238;18.256;2022-12-24T08:17:27;9.98;;;7.15;;
44558;SDS011;30270;40.238;18.256;2022-12-24T08:19:57;10.43;;;6.75;;
44558;SDS011;30270;40.238;18.256;2022-12-24T08:22:25;9.27;;;6.28;;
44558;SDS011;30270;40.238;18.256;2022-12-24T08:24:52;10.82;;;6.55;;
44558;SDS011;30270;40.238;18.256;2022-12-24T08:27:20;8.63;;;7.00;;
44558;SDS011;30270;40.238;18.256;2022-12-24T08:29:47;13.35;;;9.98;;
44558;SDS011;30270;40.238;18.256;2022-12-24T08:32:15;10.80;;;8.02;;
44558;SDS011;30270;40.238;18.256;2022-12-24T08:34:43;12.93;;;7.72;;
44558;SDS011;30270;40.238;18.256;2022-12-24T08:37:11;12.90;;;8.45;;
44558;SDS011;30270;40.238;18.256;2022-12-24T08:39:38;9.18;;;6.38;;
44558;SDS011;30270;40.238;18.256;2022-12-24T08:42:05;12.32;;;6.30;;
44558;SDS011;30270;40.238;18.256;2022-12-24T08:44:33;10.75;;;6.88;;
44558;SDS011;30270;40.238;18.256;2022-12-24T08:47:00;9.40;;;6.80;;
44558;SDS011;30270;40.238;18.256;2022-12-24T08:49:28;10.98;;;7.68;;
44558;SDS011;30270;40.238;18.256;2022-12-24T08:51:56;8.20;;;5.45;;
44558;SDS011;30270;40.238;18.256;2022-12-24T08:54:23;8.18;;;6.30;;
44558;SDS011;30270;40.238;18.256;2022-12-24T08:56:51;7.95;;;5.60;;
44558;SDS011;30270;40.238;18.256;2022-12-24T08:59:18;10.00;;;7.38;;
44558;SDS011;30270;40.238;18.256;2022-12-24T09:01:46;7.50;;;5.07;;
44558;SDS011;30270;40.238;18.256;2022-12-24T09:04:14;9.45;;;5.22;;
44558;SDS011;30270;40.238;18.256;2022-12-24T09:06:41;6.15;;;4.82;;
44558;SDS011;30270;40.238;18.256;2022-12-24T09:09:09;9.35;;;4.00;;
44558;SDS011;30270;40.238;18.256;2022-12-24T09:11:36;7.18;;;5.03;;
44558;SDS011;30270;40.238;18.256;2022-12-24T09:14:04;6.50;;;3.97;;
44558;SDS011;30270;40.238;18.256;2022-12-24T09:16:31;8.68;;;4.20;;
44558;SDS011;30270;40.238;18.256;2022-12-24T09:18:59;27.45;;;16.02;;
44558;SDS011;30270;40.238;18.256;2022-12-24T09:21:26;16.13;;;8.23;;
44558;SDS011;30270;40.238;18.256;2022-12-24T09:23:54;9.77;;;6.38;;
44558;SDS011;30270;40.238;18.256;2022-12-24T09:26:22;7.90;;;4.45;;
44558;SDS011;30270;40.238;18.256;2022-12-24T09:28:51;11.13;;;4.45;;
44558;SDS011;30270;40.238;18.256;2022-12-24T09:31:19;7.32;;;4.50;;
44558;SDS011;30270;40.238;18.256;2022-12-24T09:33:48;7.82;;;4.70;;
44558;SDS011;30270;40.238;18.256;2022-12-24T09:36:17;10.05;;;5.00;;
44558;SDS011;30270;40.238;18.256;2022-12-24T09:38:46;14.27;;;6.07;;
44558;SDS011;30270;40.238;18.256;2022-12-24T09:43:51;8.15;;;4.78;;
44558;SDS011;30270;40.238;18.256;2022-12-24T09:46:33;7.85;;;4.88;;
44558;SDS011;30270;40.238;18.256;2022-12-24T09:49:05;9.10;;;5.10;;
44558;SDS011;30270;40.238;18.256;2022-12-24T09:51:43;9.20;;;6.07;;
44558;SDS011;30270;40.238;18.256;2022-12-24T09:54:24;11.30;;;8.00;;
44558;SDS011;30270;40.238;18.256;2022-12-24T09:57:00;11.68;;;6.47;;
44558;SDS011;30270;40.238;18.256;2022-12-24T09:59:40;12.52;;;6.80;;
44558;SDS011;30270;40.238;18.256;2022-12-24T10:02:11;15.13;;;8.25;;
44558;SDS011;30270;40.238;18.256;2022-12-24T10:04:41;17.60;;;8.95;;
44558;SDS011;30270;40.238;18.256;2022-12-24T10:13:03;20.67;;;14.45;;
44558;SDS011;30270;40.238;18.256;2022-12-24T10:21:43;15.07;;;5.28;;
44558;SDS011;30270;40.238;18.256;2022-12-24T10:24:36;8.30;;;5.18;;
44558;SDS011;30270;40.238;18.256;2022-12-24T10:27:14;8.93;;;6.22;;
44558;SDS011;30270;40.238;18.256;2022-12-24T10:29:52;8.60;;;5.40;;
44558;SDS011;30270;40.238;18.256;2022-12-24T10:32:31;6.57;;;5.25;;
44558;SDS011;30270;40.238;18.256;2022-12-24T10:37:49;7.32;;;4.70;;
44558;SDS011;30270;40.238;18.256;2022-12-24T10:42:45;8.35;;;4.97;;
44558;SDS011;30270;40.238;18.256;2022-12-24T10:45:17;10.13;;;5.07;;
44558;SDS011;30270;40.238;18.256;2022-12-24T10:47:48;7.10;;;4.40;;
44558;SDS011;30270;40.238;18.256;2022-12-24T10:53:43;6.32;;;4.20;;
44558;SDS011;30270;40.238;18.256;2022-12-24T10:56:09;6.85;;;4.65;;
44558;SDS011;30270;40.238;18.256;2022-12-24T10:58:43;7.28;;;5.47;;
44558;SDS011;30270;40.238;18.256;2022-12-24T11:01:16;9.70;;;4.20;;
44558;SDS011;30270;40.238;18.256;2022-12-24T11:03:44;7.25;;;4.28;;
44558;SDS011;30270;40.238;18.256;2022-12-24T11:06:12;5.10;;;3.35;;
44558;SDS011;30270;40.238;18.256;2022-12-24T11:08:43;6.28;;;4.25;;
44558;SDS011;30270;40.238;18.256;2022-12-24T11:11:11;5.90;;;4.00;;
44558;SDS011;30270;40.238;18.256;2022-12-24T11:13:55;7.85;;;4.65;;
44558;SDS011;30270;40.238;18.256;2022-12-24T11:19:00;5.70;;;3.63;;
44558;SDS011;30270;40.238;18.256;2022-12-24T11:21:33;7.25;;;4.75;;
44558;SDS011;30270;40.238;18.256;2022-12-24T11:26:40;8.18;;;4.22;;
44558;SDS011;30270;40.238;18.256;2022-12-24T11:31:46;9.30;;;6.47;;
44558;SDS011;30270;40.238;18.256;2022-12-24T11:39:52;7.95;;;6.00;;
44558;SDS011;30270;40.238;18.256;2022-12-24T11:45:05;6.90;;;4.97;;
44558;SDS011;30270;40.238;18.256;2022-12-24T11:47:54;9.15;;;5.35;;
44558;SDS011;30270;40.238;18.256;2022-12-24T11:50:29;5.28;;;4.22;;
44558;SDS011;30270;40.238;18.256;2022-12-24T11:58:02;8.30;;;4.80;;
44558;SDS011;30270;40.238;18.256;2022-12-24T12:00:39;6.43;;;4.43;;
44558;SDS011;30270;40.238;18.256;2022-12-24T12:03:16;8.50;;;6.32;;
44558;SDS011;30270;40.238;18.256;2022-12-24T12:05:49;7.25;;;4.88;;
44558;SDS011;30270;40.238;18.256;2022-12-24T12:08:19;10.40;;;5.55;;
44558;SDS011;30270;40.238;18.256;2022-12-24T12:10:48;6.25;;;5.20;;
44558;SDS011;30270;40.238;18.256;2022-12-24T12:13:19;8.73;;;6.43;;
44558;SDS011;30270;40.238;18.256;2022-12-24T12:16:16;10.60;;;7.43;;
44558;SDS011;30270;40.238;18.256;2022-12-24T12:19:20;8.85;;;5.38;;
44558;SDS011;30270;40.238;18.256;2022-12-24T12:21:51;7.38;;;5.32;;
44558;SDS011;30270;40.238;18.256;2022-12-24T12:24:20;9.90;;;5.35;;
44558;SDS011;30270;40.238;18.256;2022-12-24T12:27:16;11.18;;;6.05;;
44558;SDS011;30270;40.238;18.256;2022-12-24T12:30:04;8.82;;;6.00;;
44558;SDS011;30270;40.238;18.256;2022-12-24T12:32:55;8.20;;;5.65;;
44558;SDS011;30270;40.238;18.256;2022-12-24T12:35:38;8.32;;;5.75;;
44558;SDS011;30270;40.238;18.256;2022-12-24T12:38:12;6.50;;;5.07;;
44558;SDS011;30270;40.238;18.256;2022-12-24T12:57:50;6.50;;;4.68;;
44558;SDS011;30270;40.238;18.256;2022-12-24T13:00:23;7.50;;;4.65;;
44558;SDS011;30270;40.238;18.256;2022-12-24T13:03:00;7.85;;;4.00;;
44558;SDS011;30270;40.238;18.256;2022-12-24T13:22:37;9.23;;;6.95;;
44558;SDS011;30270;40.238;18.256;2022-12-24T13:25:05;10.18;;;6.13;;
44558;SDS011;30270;40.238;18.256;2022-12-24T13:27:46;8.80;;;5.55;;
44558;SDS011;30270;40.238;18.256;2022-12-24T13:46:47;9.00;;;5.30;;
44558;SDS011;30270;40.238;18.256;2022-12-24T13:49:36;7.22;;;5.13;;
44558;SDS011;30270;40.238;18.256;2022-12-24T13:54:38;7.70;;;5.72;;
44558;SDS011;30270;40.238;18.256;2022-12-24T14:02:59;8.85;;;5.57;;
44558;SDS011;30270;40.238;18.256;2022-12-24T14:08:13;9.05;;;5.85;;
44558;SDS011;30270;40.238;18.256;2022-12-24T14:10:43;10.23;;;6.38;;
44558;SDS011;30270;40.238;18.256;2022-12-24T14:16:17;10.88;;;5.95;;
44558;SDS011;30270;40.238;18.256;2022-12-24T14:21:54;9.10;;;5.93;;
44558;SDS011;30270;40.238;18.256;2022-12-24T14:24:40;7.03;;;4.75;;
44558;SDS011;30270;40.238;18.256;2022-12-24T14:30:06;12.52;;;7.88;;
44558;SDS011;30270;40.238;18.256;2022-12-24T14:32:44;10.77;;;7.40;;
44558;SDS011;30270;40.238;18.256;2022-12-24T14:37:48;11.27;;;7.70;;
44558;SDS011;30270;40.238;18.256;2022-12-24T14:40:25;12.73;;;8.95;;
44558;SDS011;30270;40.238;18.256;2022-12-24T14:43:00;11.30;;;7.72;;
44558;SDS011;30270;40.238;18.256;2022-12-24T14:48:40;9.55;;;6.90;;
44558;SDS011;30270;40.238;18.256;2022-12-24T14:51:40;10.90;;;7.78;;
44558;SDS011;30270;40.238;18.256;2022-12-24T14:59:49;8.63;;;5.55;;
44558;SDS011;30270;40.238;18.256;2022-12-24T15:05:08;7.80;;;5.57;;
44558;SDS011;30270;40.238;18.256;2022-12-24T15:07:36;7.63;;;5.47;;
44558;SDS011;30270;40.238;18.256;2022-12-24T15:10:21;8.38;;;5.95;;
44558;SDS011;30270;40.238;18.256;2022-12-24T15:12:52;10.65;;;5.78;;
44558;SDS011;30270;40.238;18.256;2022-12-24T15:15:22;9.73;;;5.85;;
44558;SDS011;30270;40.238;18.256;2022-12-24T15:17:50;21.73;;;8.25;;
44558;SDS011;30270;40.238;18.256;2022-12-24T15:20:23;13.60;;;7.28;;
44558;SDS011;30270;40.238;18.256;2022-12-24T15:22:53;12.70;;;7.65;;
44558;SDS011;30270;40.238;18.256;2022-12-24T15:25:26;9.25;;;7.05;;
44558;SDS011;30270;40.238;18.256;2022-12-24T15:27:56;10.15;;;6.90;;
44558;SDS011;30270;40.238;18.256;2022-12-24T15:30:25;10.05;;;6.18;;
44558;SDS011;30270;40.238;18.256;2022-12-24T15:32:55;9.43;;;6.05;;
44558;SDS011;30270;40.238;18.256;2022-12-24T15:41:01;17.05;;;12.43;;
44558;SDS011;30270;40.238;18.256;2022-12-24T15:43:31;11.00;;;7.65;;
44558;SDS011;30270;40.238;18.256;2022-12-24T15:45:59;14.57;;;10.07;;
44558;SDS011;30270;40.238;18.256;2022-12-24T15:48:27;9.82;;;8.20;;
44558;SDS011;30270;40.238;18.256;2022-12-24T15:50:57;13.30;;;10.75;;
44558;SDS011;30270;40.238;18.256;2022-12-24T15:53:36;39.60;;;26.92;;
44558;SDS011;30270;40.238;18.256;2022-12-24T15:56:13;27.48;;;20.08;;
44558;SDS011;30270;40.238;18.256;2022-12-24T15:58:53;31.15;;;21.90;;
44558;SDS011;30270;40.238;18.256;2022-12-24T16:01:46;32.83;;;21.65;;
44558;SDS011;30270;40.238;18.256;2022-12-24T16:04:24;37.15;;;23.90;;
44558;SDS011;30270;40.238;18.256;2022-12-24T16:09:30;20.35;;;15.05;;
44558;SDS011;30270;40.238;18.256;2022-12-24T16:12:16;25.05;;;19.63;;
44558;SDS011;30270;40.238;18.256;2022-12-24T16:14:53;20.65;;;16.70;;
44558;SDS011;30270;40.238;18.256;2022-12-24T16:17:25;34.17;;;24.05;;
44558;SDS011;30270;40.238;18.256;2022-12-24T16:19:57;21.70;;;17.65;;
44558;SDS011;30270;40.238;18.256;2022-12-24T16:22:29;32.58;;;24.92;;
44558;SDS011;30270;40.238;18.256;2022-12-24T16:24:58;28.52;;;20.13;;
44558;SDS011;30270;40.238;18.256;2022-12-24T16:27:26;25.23;;;21.55;;
44558;SDS011;30270;40.238;18.256;2022-12-24T16:29:53;32.28;;;19.58;;
44558;SDS011;30270;40.238;18.256;2022-12-24T16:32:30;21.63;;;16.25;;
44558;SDS011;30270;40.238;18.256;2022-12-24T16:35:00;20.95;;;14.32;;
44558;SDS011;30270;40.238;18.256;2022-12-24T16:37:29;18.60;;;15.35;;
44558;SDS011;30270;40.238;18.256;2022-12-24T16:39:57;22.75;;;13.45;;
44558;SDS011;30270;40.238;18.256;2022-12-24T16:42:25;16.50;;;12.43;;
44558;SDS011;30270;40.238;18.256;2022-12-24T16:45:12;43.42;;;25.45;;
44558;SDS011;30270;40.238;18.256;2022-12-24T16:47:40;77.18;;;51.40;;
44558;SDS011;30270;40.238;18.256;2022-12-24T16:50:13;84.82;;;59.17;;
44558;SDS011;30270;40.238;18.256;2022-12-24T16:52:42;83.60;;;59.08;;
44558;SDS011;30270;40.238;18.256;2022-12-24T16:55:13;64.75;;;41.92;;
44558;SDS011;30270;40.238;18.256;2022-12-24T16:57:42;63.38;;;45.50;;
44558;SDS011;30270;40.238;18.256;2022-12-24T17:00:17;63.58;;;44.90;;
44558;SDS011;30270;40.238;18.256;2022-12-24T17:02:47;52.42;;;35.92;;
44558;SDS011;30270;40.238;18.256;2022-12-24T17:05:15;50.78;;;34.45;;
44558;SDS011;30270;40.238;18.256;2022-12-24T17:07:43;55.95;;;38.58;;
44558;SDS011;30270;40.238;18.256;2022-12-24T17:10:11;41.30;;;29.60;;
44558;SDS011;30270;40.238;18.256;2022-12-24T17:12:40;38.70;;;29.50;;
44558;SDS011;30270;40.238;18.256;2022-12-24T17:15:09;37.85;;;28.83;;
44558;SDS011;30270;40.238;18.256;2022-12-24T17:17:37;40.90;;;28.52;;
44558;SDS011;30270;40.238;18.256;2022-12-24T17:20:05;38.92;;;30.75;;
44558;SDS011;30270;40.238;18.256;2022-12-24T17:22:33;41.53;;;30.90;;
44558;SDS011;30270;40.238;18.256;2022-12-24T17:25:03;41.05;;;29.15;;
44558;SDS011;30270;40.238;18.256;2022-12-24T17:27:31;35.95;;;27.75;;
44558;SDS011;30270;40.238;18.256;2022-12-24T17:29:59;45.90;;;29.90;;
44558;SDS011;30270;40.238;18.256;2022-12-24T17:32:27;37.05;;;25.98;;
44558;SDS011;30270;40.238;18.256;2022-12-24T17:34:54;30.75;;;21.73;;
44558;SDS011;30270;40.238;18.256;2022-12-24T17:37:22;30.33;;;19.98;;